createdAt,value
2018-04-12T00:00:30.782Z,999.44
2018-04-12T00:01:30.774Z,999.39
2018-04-12T00:02:30.769Z,999.45
2018-04-12T00:03:30.767Z,999.39
2018-04-12T00:04:30.757Z,999.40
2018-04-12T00:05:30.748Z,999.38
2018-04-12T00:06:30.742Z,999.47
2018-04-12T00:07:30.736Z,999.40
2018-04-12T00:08:30.731Z,999.35
2018-04-12T00:09:30.733Z,999.36
2018-04-12T00:10:30.717Z,999.36
2018-04-12T00:11:30.711Z,999.38
2018-04-12T00:12:30.704Z,999.38
2018-04-12T00:13:30.701Z,999.33
2018-04-12T00:14:30.692Z,999.37
2018-04-12T00:15:30.686Z,999.39
2018-04-12T00:16:30.678Z,999.34
2018-04-12T00:17:30.671Z,999.36
2018-04-12T00:18:30.666Z,999.31
2018-04-12T00:19:30.659Z,999.32
2018-04-12T00:20:30.653Z,999.24
2018-04-12T00:21:30.645Z,999.29
2018-04-12T00:22:30.642Z,999.26
2018-04-12T00:23:30.634Z,999.29
2018-04-12T00:24:30.627Z,999.26
2018-04-12T00:25:30.621Z,999.29
2018-04-12T00:26:30.616Z,999.24
2018-04-12T00:27:30.609Z,999.24
2018-04-12T00:28:30.604Z,999.14
2018-04-12T00:29:30.596Z,999.22
2018-04-12T00:30:30.591Z,999.21
2018-04-12T00:31:30.588Z,999.12
2018-04-12T00:32:30.579Z,999.19
2018-04-12T00:33:30.570Z,999.15
2018-04-12T00:34:30.565Z,999.14
2018-04-12T00:35:30.559Z,999.08
2018-04-12T00:36:30.553Z,999.10
2018-04-12T00:37:30.547Z,999.09
2018-04-12T00:38:30.541Z,999.08
2018-04-12T00:39:30.536Z,999.13
2018-04-12T00:40:30.529Z,999.10
2018-04-12T00:41:30.523Z,999.11
2018-04-12T00:42:30.517Z,999.06
2018-04-12T00:43:30.511Z,999.03
2018-04-12T00:44:30.505Z,999.08
2018-04-12T00:45:30.497Z,999.07
2018-04-12T00:46:30.492Z,999.08
2018-04-12T00:47:30.486Z,999.04
2018-04-12T00:48:30.481Z,999.04
2018-04-12T00:49:30.474Z,999.01
2018-04-12T00:50:30.467Z,999.02
2018-04-12T00:51:30.461Z,998.97
2018-04-12T00:52:30.455Z,998.99
2018-04-12T00:53:30.448Z,998.95
2018-04-12T00:54:30.442Z,998.97
2018-04-12T00:55:30.438Z,998.97
2018-04-12T00:56:30.431Z,998.95
2018-04-12T00:57:30.429Z,998.96
2018-04-12T00:58:30.420Z,998.93
2018-04-12T00:59:30.414Z,998.94
2018-04-12T01:00:30.408Z,998.89
2018-04-12T01:01:30.401Z,998.89
2018-04-12T01:02:30.397Z,998.91
2018-04-12T01:03:30.390Z,998.86
2018-04-12T01:04:30.386Z,998.87
2018-04-12T01:05:30.377Z,998.89
2018-04-12T01:06:30.371Z,998.89
2018-04-12T01:07:30.366Z,998.88
2018-04-12T01:08:30.360Z,998.83
2018-04-12T01:09:30.353Z,998.81
2018-04-12T01:10:30.348Z,998.87
2018-04-12T01:11:30.341Z,998.84
2018-04-12T01:12:30.336Z,998.82
2018-04-12T01:13:30.331Z,998.80
2018-04-12T01:14:30.324Z,998.74
2018-04-12T01:15:30.318Z,998.80
2018-04-12T01:16:30.313Z,998.78
2018-04-12T01:17:30.307Z,998.75
2018-04-12T01:18:30.301Z,998.74
2018-04-12T01:19:30.293Z,998.81
2018-04-12T01:20:30.289Z,998.75
2018-04-12T01:21:30.282Z,998.78
2018-04-12T01:22:30.274Z,998.78
2018-04-12T01:23:30.270Z,998.73
2018-04-12T01:24:30.264Z,998.73
2018-04-12T01:25:30.257Z,998.72
2018-04-12T01:26:30.251Z,998.70
2018-04-12T01:27:30.245Z,998.61
2018-04-12T01:28:30.239Z,998.66
2018-04-12T01:29:30.233Z,998.64
2018-04-12T01:30:30.228Z,998.63
2018-04-12T01:31:30.222Z,998.66
2018-04-12T01:32:30.216Z,998.63
2018-04-12T01:33:30.209Z,998.61
2018-04-12T01:34:30.202Z,998.57
2018-04-12T01:35:30.198Z,998.58
2018-04-12T01:36:30.195Z,998.60
2018-04-12T01:37:30.190Z,998.62
2018-04-12T01:38:30.178Z,998.60
2018-04-12T01:39:30.171Z,998.57
2018-04-12T01:40:30.166Z,998.58
2018-04-12T01:41:30.159Z,998.56
2018-04-12T01:42:30.152Z,998.57
2018-04-12T01:43:30.150Z,998.59
2018-04-12T01:44:30.141Z,998.59
2018-04-12T01:45:30.135Z,998.58
2018-04-12T01:46:30.129Z,998.57
2018-04-12T01:47:30.123Z,998.58
2018-04-12T01:48:30.117Z,998.56
2018-04-12T01:49:30.109Z,998.56
2018-04-12T01:50:30.104Z,998.53
2018-04-12T01:51:30.097Z,998.54
2018-04-12T01:52:30.092Z,998.48
2018-04-12T01:53:30.084Z,998.50
2018-04-12T01:54:30.078Z,998.49
2018-04-12T01:55:30.072Z,998.52
2018-04-12T01:56:30.066Z,998.48
2018-04-12T01:57:30.060Z,998.48
2018-04-12T01:58:30.056Z,998.45
2018-04-12T01:59:30.049Z,998.49
2018-04-12T02:00:30.048Z,998.50
2018-04-12T02:01:30.051Z,998.54
2018-04-12T02:02:30.030Z,998.49
2018-04-12T02:03:30.023Z,998.47
2018-04-12T02:04:30.021Z,998.44
2018-04-12T02:05:30.011Z,998.40
2018-04-12T02:06:30.005Z,998.42
2018-04-12T02:07:29.999Z,998.40
2018-04-12T02:08:29.994Z,998.39
2018-04-12T02:09:29.985Z,998.40
2018-04-12T02:10:29.979Z,998.40
2018-04-12T02:11:29.973Z,998.41
2018-04-12T02:12:29.968Z,998.41
2018-04-12T02:13:29.963Z,998.40
2018-04-12T02:14:29.956Z,998.43
2018-04-12T02:15:29.951Z,998.38
2018-04-12T02:16:29.945Z,998.37
2018-04-12T02:17:29.938Z,998.34
2018-04-12T02:18:29.931Z,998.31
2018-04-12T02:19:29.925Z,998.30
2018-04-12T02:20:29.919Z,998.26
2018-04-12T02:21:29.912Z,998.30
2018-04-12T02:22:29.909Z,998.34
2018-04-12T02:23:29.903Z,998.25
2018-04-12T02:24:29.894Z,998.32
2018-04-12T02:25:29.889Z,998.32
2018-04-12T02:26:29.883Z,998.27
2018-04-12T02:27:29.877Z,998.21
2018-04-12T02:28:29.871Z,998.21
2018-04-12T02:29:29.864Z,998.14
2018-04-12T02:30:29.858Z,998.17
2018-04-12T02:31:29.855Z,998.18
2018-04-12T02:32:29.846Z,998.12
2018-04-12T02:33:29.837Z,998.11
2018-04-12T02:34:29.832Z,998.10
2018-04-12T02:35:29.825Z,998.09
2018-04-12T02:36:29.820Z,998.08
2018-04-12T02:37:29.812Z,998.04
2018-04-12T02:38:29.813Z,997.97
2018-04-12T02:39:29.801Z,998.02
2018-04-12T02:40:29.795Z,997.95
2018-04-12T02:41:29.788Z,997.95
2018-04-12T02:42:29.783Z,997.86
2018-04-12T02:43:29.776Z,997.87
2018-04-12T02:44:29.772Z,997.85
2018-04-12T02:45:29.766Z,997.86
2018-04-12T02:46:29.762Z,997.85
2018-04-12T02:47:29.753Z,997.86
2018-04-12T02:48:29.749Z,997.83
2018-04-12T02:49:29.739Z,997.84
2018-04-12T02:50:29.733Z,997.76
2018-04-12T02:51:29.727Z,997.75
2018-04-12T02:52:29.721Z,997.78
2018-04-12T02:53:29.710Z,997.71
2018-04-12T02:54:29.704Z,997.71
2018-04-12T02:55:29.702Z,997.74
2018-04-12T02:56:29.696Z,997.68
2018-04-12T02:57:29.686Z,997.72
2018-04-12T02:58:29.680Z,997.80
2018-04-12T02:59:29.674Z,997.73
2018-04-12T03:00:29.667Z,997.76
2018-04-12T03:01:29.662Z,997.75
2018-04-12T03:02:29.655Z,997.78
2018-04-12T03:03:29.651Z,997.69
2018-04-12T03:04:29.643Z,997.71
2018-04-12T03:05:29.639Z,997.64
2018-04-12T03:06:29.637Z,997.69
2018-04-12T03:07:29.623Z,997.67
2018-04-12T03:08:29.619Z,997.63
2018-04-12T03:09:29.614Z,997.65
2018-04-12T03:10:29.608Z,997.65
2018-04-12T03:11:29.599Z,997.62
2018-04-12T03:12:29.592Z,997.64
2018-04-12T03:13:29.586Z,997.61
2018-04-12T03:14:29.580Z,997.58
2018-04-12T03:15:29.574Z,997.56
2018-04-12T03:16:29.567Z,997.57
2018-04-12T03:17:29.564Z,997.57
2018-04-12T03:18:29.558Z,997.53
2018-04-12T03:19:29.547Z,997.56
2018-04-12T03:20:29.542Z,997.42
2018-04-12T03:21:29.535Z,997.51
2018-04-12T03:22:29.530Z,997.51
2018-04-12T03:23:29.524Z,997.49
2018-04-12T03:24:29.570Z,997.47
2018-04-12T03:25:29.510Z,997.41
2018-04-12T03:26:29.505Z,997.45
2018-04-12T03:27:29.498Z,997.40
2018-04-12T03:28:29.493Z,997.39
2018-04-12T03:29:29.489Z,997.36
2018-04-12T03:30:29.484Z,997.37
2018-04-12T03:31:29.473Z,997.35
2018-04-12T03:32:29.467Z,997.35
2018-04-12T03:33:29.459Z,997.34
2018-04-12T03:34:29.455Z,997.30
2018-04-12T03:35:29.451Z,997.31
2018-04-12T03:36:29.445Z,997.31
2018-04-12T03:37:29.462Z,997.31
2018-04-12T03:38:29.429Z,997.32
2018-04-12T03:39:29.421Z,997.32
2018-04-12T03:40:29.415Z,997.32
2018-04-12T03:41:29.408Z,997.33
2018-04-12T03:42:29.402Z,997.29
2018-04-12T03:43:29.400Z,997.32
2018-04-12T03:44:29.390Z,997.29
2018-04-12T03:45:29.382Z,997.32
2018-04-12T03:46:29.376Z,997.34
2018-04-12T03:47:29.374Z,997.33
2018-04-12T03:48:29.369Z,997.33
2018-04-12T03:49:29.458Z,997.23
2018-04-12T03:50:29.372Z,997.25
2018-04-12T03:51:29.346Z,997.20
2018-04-12T03:52:29.340Z,997.19
2018-04-12T03:53:29.332Z,997.18
2018-04-12T03:54:29.331Z,997.17
2018-04-12T03:55:29.321Z,997.18
2018-04-12T03:56:29.314Z,997.15
2018-04-12T03:57:29.307Z,997.15
2018-04-12T03:58:29.304Z,997.15
2018-04-12T03:59:29.295Z,997.15
2018-04-12T04:00:29.288Z,997.13
2018-04-12T04:01:29.285Z,997.11
2018-04-12T04:02:29.291Z,997.12
2018-04-12T04:03:29.267Z,997.11
2018-04-12T04:04:29.263Z,997.13
2018-04-12T04:05:29.254Z,997.13
2018-04-12T04:06:29.248Z,997.22
2018-04-12T04:07:29.246Z,997.19
2018-04-12T04:08:29.240Z,997.13
2018-04-12T04:09:29.229Z,997.14
2018-04-12T04:10:29.224Z,997.16
2018-04-12T04:11:29.217Z,997.10
2018-04-12T04:12:29.212Z,997.14
2018-04-12T04:13:29.203Z,997.07
2018-04-12T04:14:29.249Z,997.19
2018-04-12T04:15:29.191Z,997.18
2018-04-12T04:16:29.184Z,997.08
2018-04-12T04:17:29.177Z,997.09
2018-04-12T04:18:29.170Z,997.10
2018-04-12T04:19:29.169Z,997.11
2018-04-12T04:20:29.162Z,997.07
2018-04-12T04:21:29.150Z,997.09
2018-04-12T04:22:29.145Z,997.08
2018-04-12T04:23:29.139Z,997.10
2018-04-12T04:24:29.132Z,997.02
2018-04-12T04:25:29.129Z,997.05
2018-04-12T04:26:29.118Z,997.04
2018-04-12T04:27:29.116Z,997.02
2018-04-12T04:28:29.110Z,996.98
2018-04-12T04:29:29.099Z,997.04
2018-04-12T04:30:29.093Z,997.06
2018-04-12T04:31:29.092Z,997.02
2018-04-12T04:32:29.089Z,996.96
2018-04-12T04:33:29.073Z,996.93
2018-04-12T04:34:29.068Z,997.01
2018-04-12T04:35:29.065Z,997.02
2018-04-12T04:36:29.055Z,996.97
2018-04-12T04:37:29.047Z,996.97
2018-04-12T04:38:29.042Z,996.92
2018-04-12T04:39:29.035Z,996.96
2018-04-12T04:40:29.029Z,996.88
2018-04-12T04:41:29.025Z,996.93
2018-04-12T04:42:29.020Z,996.91
2018-04-12T04:43:29.010Z,996.91
2018-04-12T04:44:29.006Z,996.95
2018-04-12T04:45:28.999Z,997.01
2018-04-12T04:46:28.992Z,996.99
2018-04-12T04:47:28.982Z,996.94
2018-04-12T04:48:28.976Z,996.94
2018-04-12T04:49:28.969Z,996.95
2018-04-12T04:50:28.962Z,996.91
2018-04-12T04:51:28.957Z,996.95
2018-04-12T04:52:28.951Z,996.92
2018-04-12T04:53:28.943Z,996.94
2018-04-12T04:54:28.936Z,996.94
2018-04-12T04:55:28.933Z,996.93
2018-04-12T04:56:28.924Z,996.93
2018-04-12T04:57:28.916Z,996.93
2018-04-12T04:58:28.909Z,996.90
2018-04-12T04:59:28.909Z,996.89
2018-04-12T05:00:28.901Z,996.84
2018-04-12T05:01:28.901Z,996.89
2018-04-12T05:02:28.888Z,996.90
2018-04-12T05:03:28.881Z,996.85
2018-04-12T05:04:28.875Z,996.82
2018-04-12T05:05:28.872Z,996.89
2018-04-12T05:06:28.857Z,996.92
2018-04-12T05:07:28.859Z,996.91
2018-04-12T05:08:28.846Z,996.90
2018-04-12T05:09:28.837Z,996.88
2018-04-12T05:10:28.832Z,996.88
2018-04-12T05:11:28.830Z,996.90
2018-04-12T05:12:28.820Z,996.79
2018-04-12T05:13:28.817Z,996.82
2018-04-12T05:14:28.811Z,996.83
2018-04-12T05:15:28.865Z,996.81
2018-04-12T05:16:28.793Z,996.84
2018-04-12T05:17:28.792Z,996.82
2018-04-12T05:18:28.790Z,996.84
2018-04-12T05:19:28.774Z,996.90
2018-04-12T05:20:28.771Z,996.80
2018-04-12T05:21:28.761Z,996.80
2018-04-12T05:22:28.756Z,996.83
2018-04-12T05:23:28.748Z,996.83
2018-04-12T05:24:28.743Z,996.83
2018-04-12T05:25:28.740Z,996.88
2018-04-12T05:26:28.734Z,996.87
2018-04-12T05:27:28.724Z,996.87
2018-04-12T05:28:28.717Z,996.87
2018-04-12T05:29:28.711Z,996.87
2018-04-12T05:30:28.707Z,996.85
2018-04-12T05:31:28.701Z,996.87
2018-04-12T05:32:28.695Z,996.88
2018-04-12T05:33:28.687Z,996.89
2018-04-12T05:34:28.682Z,996.88
2018-04-12T05:35:28.678Z,996.90
2018-04-12T05:36:28.671Z,996.86
2018-04-12T05:37:28.669Z,996.80
2018-04-12T05:38:28.664Z,996.84
2018-04-12T05:39:28.658Z,996.84
2018-04-12T05:40:28.651Z,996.83
2018-04-12T05:41:28.644Z,996.85
2018-04-12T05:42:28.643Z,996.80
2018-04-12T05:43:28.637Z,996.89
2018-04-12T05:44:28.639Z,996.91
2018-04-12T05:45:28.622Z,996.89
2018-04-12T05:46:28.619Z,996.95
2018-04-12T05:47:28.612Z,996.95
2018-04-12T05:48:28.609Z,996.89
2018-04-12T05:49:28.602Z,996.90
2018-04-12T05:50:28.597Z,996.91
2018-04-12T05:51:28.592Z,996.85
2018-04-12T05:52:28.588Z,996.80
2018-04-12T05:53:28.583Z,996.83
2018-04-12T05:54:28.577Z,996.80
2018-04-12T05:55:28.577Z,996.78
2018-04-12T05:56:28.573Z,996.78
2018-04-12T05:57:28.567Z,996.75
2018-04-12T05:58:28.562Z,996.76
2018-04-12T05:59:28.554Z,996.79
2018-04-12T06:00:28.549Z,996.74
2018-04-12T06:01:28.546Z,996.80
2018-04-12T06:02:28.540Z,996.75
2018-04-12T06:03:28.536Z,996.79
2018-04-12T06:04:28.531Z,996.78
2018-04-12T06:05:28.528Z,996.75
2018-04-12T06:06:28.521Z,996.69
2018-04-12T06:07:28.518Z,996.67
2018-04-12T06:08:28.514Z,996.70
2018-04-12T06:09:28.512Z,996.72
2018-04-12T06:10:28.508Z,996.72
2018-04-12T06:11:28.500Z,996.70
2018-04-12T06:12:28.495Z,996.64
2018-04-12T06:13:28.490Z,996.68
2018-04-12T06:14:28.485Z,996.67
2018-04-12T06:15:28.486Z,996.68
2018-04-12T06:16:28.482Z,996.66
2018-04-12T06:17:28.472Z,996.70
2018-04-12T06:18:28.469Z,996.68
2018-04-12T06:19:28.465Z,996.68
2018-04-12T06:20:28.475Z,996.63
2018-04-12T06:21:28.455Z,996.70
2018-04-12T06:22:28.452Z,996.68
2018-04-12T06:23:28.449Z,996.65
2018-04-12T06:24:28.444Z,996.67
2018-04-12T06:25:28.440Z,996.69
2018-04-12T06:26:28.435Z,996.64
2018-04-12T06:27:28.435Z,996.65
2018-04-12T06:28:28.462Z,996.69
2018-04-12T06:29:28.423Z,996.60
2018-04-12T06:30:28.419Z,996.61
2018-04-12T06:31:28.414Z,996.63
2018-04-12T06:32:28.411Z,996.60
2018-04-12T06:33:28.406Z,996.58
2018-04-12T06:34:28.402Z,996.55
2018-04-12T06:35:28.403Z,996.64
2018-04-12T06:36:28.406Z,996.68
2018-04-12T06:37:28.391Z,996.62
2018-04-12T06:38:28.387Z,996.67
2018-04-12T06:39:28.387Z,996.63
2018-04-12T06:40:28.383Z,996.64
2018-04-12T06:41:28.375Z,996.63
2018-04-12T06:42:28.370Z,996.64
2018-04-12T06:43:28.367Z,996.62
2018-04-12T06:44:28.364Z,996.64
2018-04-12T06:45:28.358Z,996.58
2018-04-12T06:46:28.355Z,996.63
2018-04-12T06:47:28.352Z,996.56
2018-04-12T06:48:28.347Z,996.53
2018-04-12T06:49:28.347Z,996.60
2018-04-12T06:50:28.344Z,996.64
2018-04-12T06:51:28.335Z,996.61
2018-04-12T06:52:28.330Z,996.63
2018-04-12T06:53:28.330Z,996.57
2018-04-12T06:54:28.327Z,996.52
2018-04-12T06:55:28.320Z,996.51
2018-04-12T06:56:28.315Z,996.52
2018-04-12T06:57:28.311Z,996.51
2018-04-12T06:58:28.306Z,996.56
2018-04-12T06:59:28.311Z,996.55
2018-04-12T07:00:28.298Z,996.57
2018-04-12T07:01:28.293Z,996.55
2018-04-12T07:02:28.289Z,996.58
2018-04-12T07:03:28.287Z,996.59
2018-04-12T07:04:28.281Z,996.55
2018-04-12T07:05:28.277Z,996.58
2018-04-12T07:06:28.277Z,996.66
2018-04-12T07:07:28.273Z,996.64
2018-04-12T07:08:28.272Z,996.59
2018-04-12T07:09:28.262Z,996.66
2018-04-12T07:10:28.258Z,996.67
2018-04-12T07:11:28.257Z,996.63
2018-04-12T07:12:28.254Z,996.54
2018-04-12T07:13:28.246Z,996.50
2018-04-12T07:14:28.242Z,996.49
2018-04-12T07:15:28.238Z,996.57
2018-04-12T07:16:28.235Z,996.42
2018-04-12T07:17:28.236Z,996.45
2018-04-12T07:18:28.229Z,996.33
2018-04-12T07:19:28.225Z,996.30
2018-04-12T07:20:28.220Z,996.30
2018-04-12T07:21:28.220Z,996.28
2018-04-12T07:22:28.216Z,996.35
2018-04-12T07:23:28.208Z,996.32
2018-04-12T07:24:28.205Z,996.40
2018-04-12T07:25:28.207Z,996.36
2018-04-12T07:26:28.202Z,996.58
2018-04-12T07:27:28.193Z,996.83
2018-04-12T07:28:28.191Z,997.03
2018-04-12T07:29:28.186Z,997.04
2018-04-12T07:30:28.182Z,997.00
2018-04-12T07:31:28.179Z,996.93
2018-04-12T07:32:28.176Z,996.96
2018-04-12T07:33:28.175Z,996.91
2018-04-12T07:34:28.170Z,997.02
2018-04-12T07:35:28.163Z,997.06
2018-04-12T07:36:28.159Z,997.00
2018-04-12T07:37:28.160Z,996.91
2018-04-12T07:38:28.151Z,996.88
2018-04-12T07:39:28.148Z,996.89
2018-04-12T07:40:28.144Z,996.97
2018-04-12T07:41:28.139Z,997.06
2018-04-12T07:42:28.136Z,997.02
2018-04-12T07:43:28.132Z,996.89
2018-04-12T07:44:28.129Z,996.88
2018-04-12T07:45:28.129Z,996.95
2018-04-12T07:46:28.124Z,996.96
2018-04-12T07:47:28.117Z,997.04
2018-04-12T07:48:28.113Z,997.08
2018-04-12T07:49:28.108Z,997.06
2018-04-12T07:50:28.110Z,997.07
2018-04-12T07:51:28.109Z,997.03
2018-04-12T07:52:28.101Z,996.98
2018-04-12T07:53:28.095Z,996.96
2018-04-12T07:54:28.091Z,996.91
2018-04-12T07:55:28.144Z,996.87
2018-04-12T07:56:28.083Z,996.87
2018-04-12T07:57:28.078Z,996.97
2018-04-12T07:58:28.074Z,996.94
2018-04-12T07:59:28.072Z,996.92
2018-04-12T08:00:28.067Z,996.85
2018-04-12T08:01:28.062Z,996.85
2018-04-12T08:02:28.059Z,996.82
2018-04-12T08:03:28.059Z,996.85
2018-04-12T08:04:28.055Z,996.84
2018-04-12T08:05:28.054Z,996.75
2018-04-12T08:06:28.047Z,996.73
2018-04-12T08:07:28.039Z,996.73
2018-04-12T08:08:28.037Z,996.73
2018-04-12T08:09:28.031Z,996.76
2018-04-12T08:10:28.031Z,996.71
2018-04-12T08:11:28.023Z,996.72
2018-04-12T08:12:28.020Z,996.74
2018-04-12T08:13:28.018Z,996.74
2018-04-12T08:14:28.011Z,996.76
2018-04-12T08:15:28.009Z,996.67
2018-04-12T08:16:28.004Z,996.66
2018-04-12T08:17:28.003Z,996.70
2018-04-12T08:18:27.999Z,996.69
2018-04-12T08:19:27.991Z,996.70
2018-04-12T08:20:27.989Z,996.68
2018-04-12T08:21:27.983Z,996.74
2018-04-12T08:22:27.981Z,996.80
2018-04-12T08:23:27.981Z,996.78
2018-04-12T08:24:27.977Z,996.73
2018-04-12T08:25:27.970Z,996.77
2018-04-12T08:26:27.965Z,996.77
2018-04-12T08:27:27.963Z,996.77
2018-04-12T08:28:27.958Z,996.78
2018-04-12T08:29:27.954Z,996.79
2018-04-12T08:30:27.949Z,996.82
2018-04-12T08:31:27.947Z,996.73
2018-04-12T08:32:27.942Z,996.78
2018-04-12T08:33:27.944Z,996.72
2018-04-12T08:34:27.940Z,996.76
2018-04-12T08:35:27.934Z,996.74
2018-04-12T08:36:27.931Z,996.79
2018-04-12T08:37:27.924Z,996.82
2018-04-12T08:38:27.920Z,996.72
2018-04-12T08:39:27.920Z,996.68
2018-04-12T08:40:27.911Z,996.64
2018-04-12T08:41:27.907Z,996.65
2018-04-12T08:42:27.903Z,996.62
2018-04-12T08:43:27.906Z,996.57
2018-04-12T08:44:27.900Z,996.53
2018-04-12T08:45:27.892Z,996.48
2018-04-12T08:46:27.888Z,996.46
2018-04-12T08:47:27.887Z,996.45
2018-04-12T08:48:27.885Z,996.43
2018-04-12T08:49:27.876Z,996.45
2018-04-12T08:50:27.871Z,996.44
2018-04-12T08:51:27.867Z,996.45
2018-04-12T08:52:27.869Z,996.43
2018-04-12T08:53:27.858Z,996.42
2018-04-12T08:54:27.853Z,996.40
2018-04-12T08:55:27.850Z,996.34
2018-04-12T08:56:27.846Z,996.34
2018-04-12T08:57:27.845Z,996.40
2018-04-12T08:58:27.841Z,996.39
2018-04-12T08:59:27.835Z,996.46
2018-04-12T09:00:27.829Z,996.47
2018-04-12T09:01:27.828Z,996.52
2018-04-12T09:02:27.825Z,996.46
2018-04-12T09:03:27.818Z,996.34
2018-04-12T09:04:27.814Z,996.32
2018-04-12T09:05:27.808Z,996.27
2018-04-12T09:06:27.803Z,996.26
2018-04-12T09:07:27.800Z,996.23
2018-04-12T09:08:27.796Z,996.16
2018-04-12T09:09:27.792Z,996.17
2018-04-12T09:10:27.787Z,996.19
2018-04-12T09:11:27.783Z,996.21
2018-04-12T09:12:27.781Z,996.19
2018-04-12T09:13:27.777Z,996.09
2018-04-12T09:14:27.775Z,996.10
2018-04-12T09:15:27.784Z,996.00
2018-04-12T09:16:27.768Z,995.88
2018-04-12T09:17:27.760Z,995.92
2018-04-12T09:18:27.755Z,996.01
2018-04-12T09:19:27.757Z,996.07
2018-04-12T09:20:27.753Z,996.22
2018-04-12T09:21:27.748Z,996.25
2018-04-12T09:22:27.741Z,996.18
2018-04-12T09:23:27.737Z,996.09
2018-04-12T09:24:27.735Z,996.14
2018-04-12T09:25:27.731Z,996.17
2018-04-12T09:26:27.728Z,996.17
2018-04-12T09:27:27.725Z,996.15
2018-04-12T09:28:27.726Z,996.20
2018-04-12T09:29:27.722Z,996.21
2018-04-12T09:30:27.719Z,996.10
2018-04-12T09:31:27.716Z,996.09
2018-04-12T09:32:27.716Z,996.00
2018-04-12T09:33:27.713Z,995.92
2018-04-12T09:34:27.711Z,995.99
2018-04-12T09:35:27.705Z,996.10
2018-04-12T09:36:27.704Z,996.08
2018-04-12T09:37:27.702Z,996.13
2018-04-12T09:38:27.701Z,996.09
2018-04-12T09:39:27.702Z,996.18
2018-04-12T09:40:27.700Z,996.10
2018-04-12T09:41:27.698Z,996.14
2018-04-12T09:42:27.699Z,996.20
2018-04-12T09:43:27.698Z,996.23
2018-04-12T09:44:27.700Z,996.14
2018-04-12T09:45:27.700Z,996.19
2018-04-12T09:46:27.701Z,996.34
2018-04-12T09:47:27.707Z,996.41
2018-04-12T09:48:27.710Z,996.34
2018-04-12T09:49:27.721Z,996.35
2018-04-12T09:50:27.711Z,996.36
2018-04-12T09:51:27.719Z,996.37
2018-04-12T09:52:27.735Z,996.37
2018-04-12T09:53:27.723Z,996.36
2018-04-12T09:54:27.730Z,996.26
2018-04-12T09:55:27.734Z,996.24
2018-04-12T09:56:27.739Z,996.32
2018-04-12T09:57:27.745Z,996.23
2018-04-12T09:58:27.750Z,996.21
2018-04-12T09:59:27.756Z,996.18
2018-04-12T10:00:27.763Z,996.21
2018-04-12T10:01:27.771Z,996.18
2018-04-12T10:02:27.779Z,996.09
2018-04-12T10:03:27.780Z,996.03
2018-04-12T10:04:27.787Z,996.01
2018-04-12T10:05:27.796Z,995.95
2018-04-12T10:06:27.803Z,995.96
2018-04-12T10:07:27.805Z,995.90
2018-04-12T10:08:27.812Z,995.95
2018-04-12T10:09:27.817Z,995.95
2018-04-12T10:10:27.822Z,996.03
2018-04-12T10:11:27.828Z,996.00
2018-04-12T10:12:27.835Z,996.06
2018-04-12T10:13:27.839Z,996.16
2018-04-12T10:14:27.860Z,996.17
2018-04-12T10:15:27.851Z,996.22
2018-04-12T10:16:27.856Z,996.28
2018-04-12T10:17:27.892Z,996.19
2018-04-12T10:18:27.864Z,996.17
2018-04-12T10:19:27.875Z,996.19
2018-04-12T10:20:27.879Z,996.01
2018-04-12T10:21:27.879Z,996.00
2018-04-12T10:22:27.886Z,996.02
2018-04-12T10:23:27.895Z,996.06
2018-04-12T10:24:27.901Z,996.13
2018-04-12T10:25:27.903Z,996.19
2018-04-12T10:26:27.910Z,996.13
2018-04-12T10:27:27.915Z,996.20
2018-04-12T10:28:27.924Z,996.27
2018-04-12T10:29:27.927Z,996.27
2018-04-12T10:30:27.934Z,996.23
2018-04-12T10:31:27.942Z,996.20
2018-04-12T10:32:27.949Z,996.22
2018-04-12T10:33:27.957Z,996.24
2018-04-12T10:34:27.965Z,996.22
2018-04-12T10:35:27.968Z,996.14
2018-04-12T10:36:27.978Z,996.18
2018-04-12T10:37:27.986Z,996.22
2018-04-12T10:38:27.999Z,996.15
2018-04-12T10:39:27.998Z,996.16
2018-04-12T10:40:28.004Z,996.19
2018-04-12T10:41:28.010Z,996.17
2018-04-12T10:42:28.016Z,996.23
2018-04-12T10:43:28.024Z,996.13
2018-04-12T10:44:28.052Z,996.18
2018-04-12T10:45:28.038Z,996.16
2018-04-12T10:46:28.045Z,996.11
2018-04-12T10:47:28.049Z,996.01
2018-04-12T10:48:28.051Z,996.07
2018-04-12T10:49:28.057Z,996.13
2018-04-12T10:50:28.062Z,996.21
2018-04-12T10:51:28.066Z,996.15
2018-04-12T10:52:28.071Z,996.00
2018-04-12T10:53:28.076Z,996.09
2018-04-12T10:54:28.080Z,996.04
2018-04-12T10:55:28.088Z,996.05
2018-04-12T10:56:28.089Z,996.01
2018-04-12T10:57:28.095Z,996.06
2018-04-12T10:58:28.098Z,996.08
2018-04-12T10:59:28.099Z,996.06
2018-04-12T11:00:28.105Z,996.08
2018-04-12T11:01:28.105Z,996.08
2018-04-12T11:02:28.110Z,996.08
2018-04-12T11:03:28.145Z,996.09
2018-04-12T11:04:28.118Z,996.06
2018-04-12T11:05:28.118Z,996.06
2018-04-12T11:06:28.119Z,996.05
2018-04-12T11:07:28.124Z,996.06
2018-04-12T11:08:28.127Z,996.08
2018-04-12T11:09:28.132Z,996.10
2018-04-12T11:10:28.138Z,996.11
2018-04-12T11:11:28.134Z,996.11
2018-04-12T11:12:28.137Z,996.04
2018-04-12T11:13:28.141Z,996.05
2018-04-12T11:14:28.141Z,996.07
2018-04-12T11:15:28.148Z,996.09
2018-04-12T11:16:28.150Z,996.04
2018-04-12T11:17:28.152Z,996.09
2018-04-12T11:18:28.199Z,996.09
2018-04-12T11:19:28.154Z,996.08
2018-04-12T11:20:28.157Z,996.12
2018-04-12T11:21:28.159Z,996.12
2018-04-12T11:22:28.165Z,996.07
2018-04-12T11:23:28.164Z,996.13
2018-04-12T11:24:28.167Z,996.15
2018-04-12T11:25:28.303Z,996.09
2018-04-12T11:26:28.174Z,996.14
2018-04-12T11:27:28.174Z,996.13
2018-04-12T11:28:28.177Z,996.12
2018-04-12T11:29:28.186Z,996.17
2018-04-12T11:30:28.185Z,996.14
2018-04-12T11:31:28.221Z,996.14
2018-04-12T11:32:28.187Z,996.18
2018-04-12T11:33:28.193Z,996.20
2018-04-12T11:34:28.212Z,996.27
2018-04-12T11:35:28.202Z,996.22
2018-04-12T11:36:28.202Z,996.19
2018-04-12T11:37:28.199Z,996.16
2018-04-12T11:38:28.203Z,996.12
2018-04-12T11:39:28.207Z,996.09
2018-04-12T11:40:28.226Z,996.15
2018-04-12T11:41:28.213Z,996.11
2018-04-12T11:42:28.218Z,996.06
2018-04-12T11:43:28.218Z,996.01
2018-04-12T11:44:28.222Z,996.01
2018-04-12T11:45:28.251Z,995.95
2018-04-12T11:46:28.243Z,995.97
2018-04-12T11:47:28.235Z,995.96
2018-04-12T11:48:28.239Z,995.94
2018-04-12T11:49:28.240Z,995.96
2018-04-12T11:50:28.243Z,995.93
2018-04-12T11:51:28.247Z,995.94
2018-04-12T11:52:28.249Z,995.85
2018-04-12T11:53:28.256Z,995.86
2018-04-12T11:54:28.255Z,995.84
2018-04-12T11:55:28.302Z,995.80
2018-04-12T11:56:28.304Z,995.78
2018-04-12T11:57:28.269Z,995.78
2018-04-12T11:58:28.269Z,995.81
2018-04-12T11:59:28.277Z,995.79
2018-04-12T12:00:28.280Z,995.78
2018-04-12T12:01:28.280Z,995.76
2018-04-12T12:02:28.283Z,995.82
2018-04-12T12:03:28.285Z,995.80
2018-04-12T12:04:28.289Z,995.81
2018-04-12T12:05:28.291Z,995.83
2018-04-12T12:06:28.295Z,995.79
2018-04-12T12:07:28.297Z,995.78
2018-04-12T12:08:28.301Z,995.76
2018-04-12T12:09:28.308Z,995.77
2018-04-12T12:10:28.312Z,995.77
2018-04-12T12:11:28.309Z,995.82
2018-04-12T12:12:28.327Z,995.78
2018-04-12T12:13:28.319Z,995.83
2018-04-12T12:14:28.326Z,995.81
2018-04-12T12:15:28.322Z,995.82
2018-04-12T12:16:28.324Z,995.90
2018-04-12T12:17:28.327Z,995.81
2018-04-12T12:18:28.331Z,995.78
2018-04-12T12:19:28.335Z,995.79
2018-04-12T12:20:28.338Z,995.79
2018-04-12T12:21:28.341Z,995.72
2018-04-12T12:22:28.346Z,995.67
2018-04-12T12:23:28.348Z,995.61
2018-04-12T12:24:28.351Z,995.63
2018-04-12T12:25:28.352Z,995.60
2018-04-12T12:26:28.356Z,995.56
2018-04-12T12:27:28.364Z,995.56
2018-04-12T12:28:28.409Z,995.53